Time,TemperatureF,DewpointF,PressureIn,WindDirection,WindDirectionDegrees,WindSpeedMPH,WindSpeedGustMPH,Humidity,HourlyPrecipIn,Conditions,Clouds,dailyrainin,SolarRadiationWatts/m^2,SoftwareType,DateUTC
2013-04-20 00:02:00,26.0,6.0,-100.00,NW,323,8.0,11.0,41,0.00,,,0.21,0.000000,,2013-04-20 05:02:00,
2013-04-20 00:32:00,24.0,5.0,-100.00,NW,320,6.0,10.0,44,0.00,,,0.21,0.000000,,2013-04-20 05:32:00,
2013-04-20 00:43:00,24.0,5.0,-100.00,NW,320,6.0,10.0,44,0.00,,,0.21,0.000000,,2013-04-20 05:43:00,
2013-04-20 00:52:00,24.0,5.0,-100.00,NW,320,6.0,10.0,44,0.00,,,0.21,0.000000,,2013-04-20 05:52:00,
2013-04-20 01:02:00,24.0,5.0,-100.00,NW,320,6.0,10.0,44,0.00,,,0.21,0.000000,,2013-04-20 06:02:00,
2013-04-20 01:32:00,22.0,4.0,-100.00,NW,314,6.0,7.0,46,0.00,,,0.21,0.000000,,2013-04-20 06:32:00,
2013-04-20 01:42:00,22.0,4.0,-100.00,NW,314,6.0,7.0,46,0.00,,,0.21,0.000000,,2013-04-20 06:42:00,
2013-04-20 01:52:00,22.0,4.0,-100.00,NW,314,6.0,7.0,46,0.00,,,0.21,0.000000,,2013-04-20 06:52:00,
2013-04-20 02:01:00,22.0,4.0,-100.00,NW,314,6.0,7.0,46,0.00,,,0.21,0.000000,,2013-04-20 07:01:00,
2013-04-20 02:32:00,19.0,5.0,-100.00,NW,326,4.0,6.0,54,0.00,,,-99.99,0.000000,,2013-04-20 07:32:00,
2013-04-20 02:42:00,19.0,5.0,-100.00,NW,326,4.0,6.0,54,0.00,,,-99.99,0.000000,,2013-04-20 07:42:00,
2013-04-20 02:52:00,19.0,5.0,-100.00,NW,326,4.0,6.0,54,0.00,,,-99.99,0.000000,,2013-04-20 07:52:00,
2013-04-20 03:02:00,19.0,5.0,-100.00,NW,326,4.0,6.0,54,0.00,,,-99.99,0.000000,,2013-04-20 08:02:00,
2013-04-20 03:32:00,18.0,4.0,-100.00,NW,324,4.0,7.0,54,0.00,,,0.21,0.000000,,2013-04-20 08:32:00,
2013-04-20 03:42:00,18.0,4.0,-100.00,NW,324,4.0,7.0,54,0.00,,,0.21,0.000000,,2013-04-20 08:42:00,
2013-04-20 03:52:00,18.0,4.0,-100.00,NW,324,4.0,7.0,54,0.00,,,0.21,0.000000,,2013-04-20 08:52:00,
2013-04-20 04:01:00,18.0,4.0,-100.00,NW,324,4.0,7.0,54,0.00,,,0.21,0.000000,,2013-04-20 09:01:00,
2013-04-20 04:33:00,16.0,2.0,-100.00,NNW,336,4.0,5.0,54,0.00,,,0.21,0.000000,,2013-04-20 09:33:00,
2013-04-20 04:43:00,16.0,2.0,-100.00,NNW,336,4.0,5.0,54,0.00,,,0.21,0.000000,,2013-04-20 09:43:00,
2013-04-20 04:53:00,16.0,2.0,-100.00,NNW,336,4.0,5.0,54,0.00,,,0.21,0.000000,,2013-04-20 09:53:00,
2013-04-20 05:03:00,16.0,2.0,-100.00,NNW,336,4.0,5.0,54,0.00,,,0.21,0.000000,,2013-04-20 10:03:00,
2013-04-20 05:33:00,15.0,3.0,-100.00,NNW,333,3.0,5.0,58,0.00,,,0.21,0.000000,,2013-04-20 10:33:00,
2013-04-20 05:42:00,15.0,3.0,-100.00,NNW,333,3.0,5.0,58,0.00,,,0.21,0.000000,,2013-04-20 10:42:00,
2013-04-20 05:53:00,15.0,3.0,-100.00,NNW,333,3.0,5.0,58,0.00,,,0.21,0.000000,,2013-04-20 10:53:00,
2013-04-20 06:02:00,15.0,3.0,-100.00,NNW,333,3.0,5.0,58,0.00,,,0.21,0.000000,,2013-04-20 11:02:00,
2013-04-20 06:32:00,11.0,6.0,-100.00,NW,317,2.0,4.0,81,0.00,,,0.21,0.000000,,2013-04-20 11:32:00,
2013-04-20 06:42:00,11.0,6.0,-100.00,NW,317,2.0,4.0,81,0.00,,,0.21,0.000000,,2013-04-20 11:42:00,
2013-04-20 06:53:00,11.0,6.0,-100.00,NW,317,2.0,4.0,81,0.00,,,0.21,0.000000,,2013-04-20 11:53:00,
2013-04-20 07:02:00,11.0,6.0,-100.00,NW,317,2.0,4.0,81,0.00,,,0.21,0.000000,,2013-04-20 12:02:00,
2013-04-20 07:32:00,14.0,6.0,-100.00,NNW,328,4.0,4.0,71,0.00,,,0.21,36.000000,,2013-04-20 12:32:00,
2013-04-20 07:42:00,14.0,6.0,-100.00,NNW,328,4.0,4.0,71,0.00,,,0.21,36.000000,,2013-04-20 12:42:00,
2013-04-20 07:52:00,14.0,6.0,-100.00,NNW,328,4.0,4.0,71,0.00,,,0.21,36.000000,,2013-04-20 12:52:00,
2013-04-20 08:02:00,14.0,6.0,-100.00,NNW,328,4.0,4.0,71,0.00,,,0.21,36.000000,,2013-04-20 13:02:00,
2013-04-20 08:32:00,23.0,9.0,-100.00,NW,314,5.0,6.0,55,0.00,,,0.21,228.000000,,2013-04-20 13:32:00,
2013-04-20 08:42:00,23.0,9.0,-100.00,NW,314,5.0,6.0,55,0.00,,,0.21,228.000000,,2013-04-20 13:42:00,
2013-04-20 08:52:00,23.0,9.0,-100.00,NW,314,5.0,6.0,55,0.00,,,0.21,228.000000,,2013-04-20 13:52:00,
2013-04-20 09:02:00,23.0,9.0,-100.00,NW,314,5.0,6.0,55,0.00,,,0.21,228.000000,,2013-04-20 14:02:00,
2013-04-20 09:32:00,33.0,11.0,-100.00,NW,308,2.0,6.0,39,0.00,,,0.21,466.000000,,2013-04-20 14:32:00,
2013-04-20 09:42:00,33.0,11.0,-100.00,NW,308,2.0,6.0,39,0.00,,,0.21,466.000000,,2013-04-20 14:42:00,
2013-04-20 09:52:00,33.0,11.0,-100.00,NW,308,2.0,6.0,39,0.00,,,0.21,466.000000,,2013-04-20 14:52:00,
2013-04-20 10:01:00,33.0,11.0,-100.00,NW,308,2.0,6.0,39,0.00,,,0.21,466.000000,,2013-04-20 15:01:00,
2013-04-20 10:34:00,39.0,12.0,-100.00,South,186,3.0,4.0,32,0.00,,,0.21,696.000000,,2013-04-20 15:34:00,
2013-04-20 10:43:00,39.0,12.0,-100.00,South,186,3.0,4.0,32,0.00,,,0.21,696.000000,,2013-04-20 15:43:00,
2013-04-20 10:53:00,39.0,12.0,-100.00,South,186,3.0,4.0,32,0.00,,,0.21,696.000000,,2013-04-20 15:53:00,
2013-04-20 11:03:00,39.0,12.0,-100.00,South,186,3.0,4.0,32,0.00,,,0.21,696.000000,,2013-04-20 16:03:00,
2013-04-20 11:33:00,42.0,9.0,-100.00,South,170,3.0,6.0,25,0.00,,,0.17,879.000000,,2013-04-20 16:33:00,
2013-04-20 11:42:00,42.0,9.0,-100.00,South,170,3.0,6.0,25,0.00,,,0.17,879.000000,,2013-04-20 16:42:00,
2013-04-20 11:53:00,42.0,9.0,-100.00,South,170,3.0,6.0,25,0.00,,,0.17,879.000000,,2013-04-20 16:53:00,
2013-04-20 12:02:00,42.0,9.0,-100.00,South,170,3.0,6.0,25,0.00,,,0.17,879.000000,,2013-04-20 17:02:00,
2013-04-20 12:33:00,41.0,4.0,-100.00,NNW,338,7.0,11.0,21,0.00,,,0.11,1020.000000,,2013-04-20 17:33:00,
2013-04-20 12:42:00,41.0,4.0,-100.00,NNW,338,7.0,11.0,21,0.00,,,0.11,1020.000000,,2013-04-20 17:42:00,
2013-04-20 12:52:00,41.0,4.0,-100.00,NNW,338,7.0,11.0,21,0.00,,,0.11,1020.000000,,2013-04-20 17:52:00,
2013-04-20 13:02:00,41.0,4.0,-100.00,NNW,338,7.0,11.0,21,0.00,,,0.11,1020.000000,,2013-04-20 18:02:00,
2013-04-20 13:32:00,45.0,5.0,-100.00,NW,323,4.0,10.0,19,0.00,,,0.05,1099.000000,,2013-04-20 18:32:00,
2013-04-20 13:42:00,45.0,5.0,-100.00,NW,323,4.0,10.0,19,0.00,,,0.05,1099.000000,,2013-04-20 18:42:00,
2013-04-20 13:52:00,45.0,5.0,-100.00,NW,323,4.0,10.0,19,0.00,,,0.05,1099.000000,,2013-04-20 18:52:00,
2013-04-20 14:02:00,45.0,5.0,-100.00,NW,323,4.0,10.0,19,0.00,,,0.05,1099.000000,,2013-04-20 19:02:00,
2013-04-20 14:32:00,47.0,7.0,-100.00,South,172,4.0,9.0,19,0.00,,,0.00,1105.000000,,2013-04-20 19:32:00,
2013-04-20 14:42:00,47.0,7.0,-100.00,South,172,4.0,9.0,19,0.00,,,0.00,1105.000000,,2013-04-20 19:42:00,
2013-04-20 14:52:00,47.0,7.0,-100.00,South,172,4.0,9.0,19,0.00,,,0.00,1105.000000,,2013-04-20 19:52:00,
2013-04-20 15:02:00,47.0,7.0,-100.00,South,172,4.0,9.0,19,0.00,,,0.00,1105.000000,,2013-04-20 20:02:00,
2013-04-20 15:32:00,43.0,9.0,-100.00,SSE,157,8.0,12.0,24,0.00,,,0.00,1043.000000,,2013-04-20 20:32:00,
2013-04-20 15:42:00,43.0,9.0,-100.00,SSE,157,8.0,12.0,24,0.00,,,0.00,1043.000000,,2013-04-20 20:42:00,
2013-04-20 15:52:00,43.0,9.0,-100.00,SSE,157,8.0,12.0,24,0.00,,,0.00,1043.000000,,2013-04-20 20:52:00,
2013-04-20 16:01:00,43.0,9.0,-100.00,SSE,157,8.0,12.0,24,0.00,,,0.00,1043.000000,,2013-04-20 21:01:00,
2013-04-20 16:33:00,43.0,9.0,-100.00,SSE,154,7.0,12.0,24,0.00,,,-99.99,907.000000,,2013-04-20 21:33:00,
2013-04-20 16:43:00,43.0,9.0,-100.00,SSE,154,7.0,12.0,24,0.00,,,-99.99,907.000000,,2013-04-20 21:43:00,
2013-04-20 16:53:00,43.0,9.0,-100.00,SSE,154,7.0,12.0,24,0.00,,,-99.99,907.000000,,2013-04-20 21:53:00,
2013-04-20 17:02:00,43.0,9.0,-100.00,SSE,154,7.0,12.0,24,0.00,,,-99.99,907.000000,,2013-04-20 22:02:00,
2013-04-20 17:33:00,42.0,10.0,-100.00,South,186,7.0,12.0,26,0.00,,,0.00,703.000000,,2013-04-20 22:33:00,
2013-04-20 17:42:00,42.0,10.0,-100.00,South,186,7.0,12.0,26,0.00,,,0.00,703.000000,,2013-04-20 22:42:00,
2013-04-20 17:53:00,42.0,10.0,-100.00,South,186,7.0,12.0,26,0.00,,,0.00,703.000000,,2013-04-20 22:53:00,
2013-04-20 18:02:00,42.0,10.0,-100.00,South,186,7.0,12.0,26,0.00,,,0.00,703.000000,,2013-04-20 23:02:00,
2013-04-20 18:32:00,39.0,8.0,-100.00,SE,139,6.0,11.0,27,0.00,,,0.00,451.000000,,2013-04-20 23:32:00,
2013-04-20 18:42:00,39.0,8.0,-100.00,SE,139,6.0,11.0,27,0.00,,,0.00,451.000000,,2013-04-20 23:42:00,
2013-04-20 18:53:00,39.0,8.0,-100.00,SE,139,6.0,11.0,27,0.00,,,0.00,451.000000,,2013-04-20 23:53:00,
2013-04-20 19:01:00,39.0,8.0,-100.00,SE,139,6.0,11.0,27,0.00,,,0.00,451.000000,,2013-04-21 00:01:00,
2013-04-20 20:32:00,34.0,9.0,-100.00,ESE,115,3.0,8.0,35,-99.99,,,0.00,58.000000,,2013-04-21 01:32:00,
2013-04-20 20:42:00,34.0,9.0,-100.00,ESE,115,3.0,8.0,35,-99.99,,,0.00,58.000000,,2013-04-21 01:42:00,
2013-04-20 20:52:00,34.0,9.0,-100.00,ESE,115,3.0,8.0,35,-99.99,,,0.00,58.000000,,2013-04-21 01:52:00,
2013-04-20 21:02:00,34.0,9.0,-100.00,ESE,115,3.0,8.0,35,-99.99,,,0.00,58.000000,,2013-04-21 02:02:00,
2013-04-20 21:32:00,28.0,13.0,-100.00,East,88,3.0,5.0,52,0.00,,,0.00,1.000000,,2013-04-21 02:32:00,
2013-04-20 21:42:00,28.0,13.0,-100.00,East,88,3.0,5.0,52,0.00,,,0.00,1.000000,,2013-04-21 02:42:00,
2013-04-20 21:52:00,28.0,13.0,-100.00,East,88,3.0,5.0,52,0.00,,,0.00,1.000000,,2013-04-21 02:52:00,
2013-04-20 22:01:00,28.0,13.0,-100.00,East,88,3.0,5.0,52,0.00,,,0.00,1.000000,,2013-04-21 03:01:00,
2013-04-20 22:33:00,27.0,11.0,-100.00,East,81,3.0,4.0,50,0.00,,,0.00,0.000000,,2013-04-21 03:33:00,
2013-04-20 22:42:00,27.0,11.0,-100.00,East,81,3.0,4.0,50,0.00,,,0.00,0.000000,,2013-04-21 03:42:00,
2013-04-20 22:52:00,27.0,11.0,-100.00,East,81,3.0,4.0,50,0.00,,,0.00,0.000000,,2013-04-21 03:52:00,
2013-04-20 23:02:00,27.0,11.0,-100.00,East,81,3.0,4.0,50,0.00,,,0.00,0.000000,,2013-04-21 04:02:00,
2013-04-20 23:33:00,28.0,10.0,-100.00,ESE,112,2.0,5.0,47,0.00,,,0.00,0.000000,,2013-04-21 04:33:00,
2013-04-20 23:42:00,28.0,10.0,-100.00,ESE,112,2.0,5.0,47,0.00,,,0.00,0.000000,,2013-04-21 04:42:00,
2013-04-20 23:53:00,28.0,10.0,-100.00,ESE,112,2.0,5.0,47,0.00,,,0.00,0.000000,,2013-04-21 04:53:00,